sensor_id;sensor_type;location;lat;lon;timestamp;P1;durP1;ratioP1;P2;durP2;ratioP2
42478;SDS011;28110;47.080;9.476;2023-05-10T00:01:33;1.17;;;0.90;;
42478;SDS011;28110;47.080;9.476;2023-05-10T00:03:59;1.20;;;0.88;;
42478;SDS011;28110;47.080;9.476;2023-05-10T00:06:24;0.70;;;0.60;;
42478;SDS011;28110;47.080;9.476;2023-05-10T00:08:50;1.58;;;0.50;;
42478;SDS011;28110;47.080;9.476;2023-05-10T00:11:15;0.70;;;0.50;;
42478;SDS011;28110;47.080;9.476;2023-05-10T00:13:41;0.57;;;0.40;;
42478;SDS011;28110;47.080;9.476;2023-05-10T00:16:06;0.65;;;0.40;;
42478;SDS011;28110;47.080;9.476;2023-05-10T00:18:32;1.07;;;0.30;;
42478;SDS011;28110;47.080;9.476;2023-05-10T00:20:57;0.97;;;0.40;;
42478;SDS011;28110;47.080;9.476;2023-05-10T00:23:23;0.90;;;0.80;;
42478;SDS011;28110;47.080;9.476;2023-05-10T00:25:48;2.20;;;1.10;;
42478;SDS011;28110;47.080;9.476;2023-05-10T00:28:14;1.73;;;1.30;;
42478;SDS011;28110;47.080;9.476;2023-05-10T00:30:40;0.60;;;0.50;;
42478;SDS011;28110;47.080;9.476;2023-05-10T00:33:05;0.67;;;0.50;;
42478;SDS011;28110;47.080;9.476;2023-05-10T00:35:31;3.80;;;1.03;;
42478;SDS011;28110;47.080;9.476;2023-05-10T00:37:57;2.00;;;0.88;;
42478;SDS011;28110;47.080;9.476;2023-05-10T00:40:22;2.83;;;1.48;;
42478;SDS011;28110;47.080;9.476;2023-05-10T00:42:48;1.67;;;1.20;;
42478;SDS011;28110;47.080;9.476;2023-05-10T00:45:13;2.67;;;1.23;;
42478;SDS011;28110;47.080;9.476;2023-05-10T00:47:39;1.88;;;1.40;;
42478;SDS011;28110;47.080;9.476;2023-05-10T00:50:05;1.88;;;1.60;;
42478;SDS011;28110;47.080;9.476;2023-05-10T00:52:31;3.38;;;2.15;;
42478;SDS011;28110;47.080;9.476;2023-05-10T00:54:57;3.40;;;2.22;;
42478;SDS011;28110;47.080;9.476;2023-05-10T00:57:23;4.27;;;2.73;;
42478;SDS011;28110;47.080;9.476;2023-05-10T00:59:49;2.38;;;2.17;;
42478;SDS011;28110;47.080;9.476;2023-05-10T01:02:16;1.98;;;1.77;;
42478;SDS011;28110;47.080;9.476;2023-05-10T01:04:42;1.57;;;1.23;;
42478;SDS011;28110;47.080;9.476;2023-05-10T01:07:08;3.95;;;1.40;;
42478;SDS011;28110;47.080;9.476;2023-05-10T01:09:34;1.63;;;1.52;;
42478;SDS011;28110;47.080;9.476;2023-05-10T01:11:59;7.87;;;2.47;;
42478;SDS011;28110;47.080;9.476;2023-05-10T01:14:26;3.78;;;2.30;;
42478;SDS011;28110;47.080;9.476;2023-05-10T01:16:53;3.78;;;2.40;;
42478;SDS011;28110;47.080;9.476;2023-05-10T01:19:19;2.60;;;2.40;;
42478;SDS011;28110;47.080;9.476;2023-05-10T01:22:02;3.40;;;1.60;;
42478;SDS011;28110;47.080;9.476;2023-05-10T01:43:42;5.90;;;1.92;;
42478;SDS011;28110;47.080;9.476;2023-05-10T01:46:35;2.87;;;1.20;;
42478;SDS011;28110;47.080;9.476;2023-05-10T01:49:02;4.13;;;1.63;;
42478;SDS011;28110;47.080;9.476;2023-05-10T01:51:38;2.03;;;1.00;;
42478;SDS011;28110;47.080;9.476;2023-05-10T01:54:11;1.23;;;0.70;;
42478;SDS011;28110;47.080;9.476;2023-05-10T01:56:38;0.60;;;0.50;;
42478;SDS011;28110;47.080;9.476;2023-05-10T01:59:07;3.10;;;0.70;;
42478;SDS011;28110;47.080;9.476;2023-05-10T02:01:37;4.53;;;1.10;;
42478;SDS011;28110;47.080;9.476;2023-05-10T02:04:04;3.25;;;1.20;;
42478;SDS011;28110;47.080;9.476;2023-05-10T02:06:31;2.40;;;1.50;;
42478;SDS011;28110;47.080;9.476;2023-05-10T02:08:58;1.65;;;1.48;;
42478;SDS011;28110;47.080;9.476;2023-05-10T02:11:26;2.70;;;1.40;;
42478;SDS011;28110;47.080;9.476;2023-05-10T02:13:53;3.28;;;1.27;;
42478;SDS011;28110;47.080;9.476;2023-05-10T02:16:20;3.42;;;1.20;;
42478;SDS011;28110;47.080;9.476;2023-05-10T02:18:50;2.65;;;1.10;;
42478;SDS011;28110;47.080;9.476;2023-05-10T02:21:17;1.80;;;1.10;;
42478;SDS011;28110;47.080;9.476;2023-05-10T02:23:45;7.80;;;3.23;;
42478;SDS011;28110;47.080;9.476;2023-05-10T02:26:13;7.90;;;3.65;;
42478;SDS011;28110;47.080;9.476;2023-05-10T02:28:40;5.20;;;1.90;;
42478;SDS011;28110;47.080;9.476;2023-05-10T02:31:07;5.45;;;0.98;;
42478;SDS011;28110;47.080;9.476;2023-05-10T02:33:35;2.08;;;0.80;;
42478;SDS011;28110;47.080;9.476;2023-05-10T02:36:03;1.20;;;0.50;;
42478;SDS011;28110;47.080;9.476;2023-05-10T02:38:30;3.83;;;1.23;;
42478;SDS011;28110;47.080;9.476;2023-05-10T02:40:57;0.60;;;0.60;;
42478;SDS011;28110;47.080;9.476;2023-05-10T02:43:24;2.63;;;0.63;;
42478;SDS011;28110;47.080;9.476;2023-05-10T02:45:50;2.45;;;0.70;;
42478;SDS011;28110;47.080;9.476;2023-05-10T02:48:16;0.90;;;0.60;;
42478;SDS011;28110;47.080;9.476;2023-05-10T02:50:43;0.60;;;0.60;;
42478;SDS011;28110;47.080;9.476;2023-05-10T02:53:10;0.80;;;0.50;;
42478;SDS011;28110;47.080;9.476;2023-05-10T02:55:40;0.73;;;0.50;;
42478;SDS011;28110;47.080;9.476;2023-05-10T02:58:07;1.65;;;0.60;;
42478;SDS011;28110;47.080;9.476;2023-05-10T03:00:32;2.13;;;0.50;;
42478;SDS011;28110;47.080;9.476;2023-05-10T03:02:58;4.40;;;0.77;;
42478;SDS011;28110;47.080;9.476;2023-05-10T03:05:24;3.20;;;1.43;;
42478;SDS011;28110;47.080;9.476;2023-05-10T03:07:49;8.77;;;2.85;;
42478;SDS011;28110;47.080;9.476;2023-05-10T03:10:16;10.57;;;2.90;;
42478;SDS011;28110;47.080;9.476;2023-05-10T03:16:06;2.65;;;0.70;;
42478;SDS011;28110;47.080;9.476;2023-05-10T03:18:42;0.50;;;0.40;;
42478;SDS011;28110;47.080;9.476;2023-05-10T03:21:13;0.35;;;0.30;;
42478;SDS011;28110;47.080;9.476;2023-05-10T03:23:54;1.75;;;0.30;;
42478;SDS011;28110;47.080;9.476;2023-05-10T03:26:26;1.65;;;0.30;;
42478;SDS011;28110;47.080;9.476;2023-05-10T03:28:53;0.45;;;0.28;;
42478;SDS011;28110;47.080;9.476;2023-05-10T03:31:20;1.10;;;0.20;;
42478;SDS011;28110;47.080;9.476;2023-05-10T03:33:46;4.63;;;0.30;;
42478;SDS011;28110;47.080;9.476;2023-05-10T03:36:13;0.30;;;0.30;;
42478;SDS011;28110;47.080;9.476;2023-05-10T03:38:38;2.50;;;0.20;;
42478;SDS011;28110;47.080;9.476;2023-05-10T03:41:04;1.37;;;0.83;;
42478;SDS011;28110;47.080;9.476;2023-05-10T03:43:29;4.63;;;1.63;;
42478;SDS011;28110;47.080;9.476;2023-05-10T03:45:55;2.90;;;1.08;;
42478;SDS011;28110;47.080;9.476;2023-05-10T03:48:20;1.20;;;0.40;;
42478;SDS011;28110;47.080;9.476;2023-05-10T03:50:46;1.97;;;0.50;;
42478;SDS011;28110;47.080;9.476;2023-05-10T03:53:12;0.57;;;0.50;;
42478;SDS011;28110;47.080;9.476;2023-05-10T03:55:37;0.93;;;0.40;;
42478;SDS011;28110;47.080;9.476;2023-05-10T03:58:03;0.90;;;0.50;;
42478;SDS011;28110;47.080;9.476;2023-05-10T04:00:28;1.73;;;0.85;;
42478;SDS011;28110;47.080;9.476;2023-05-10T04:02:55;5.63;;;0.90;;
42478;SDS011;28110;47.080;9.476;2023-05-10T04:05:20;1.88;;;0.57;;
42478;SDS011;28110;47.080;9.476;2023-05-10T04:07:46;0.60;;;0.60;;
42478;SDS011;28110;47.080;9.476;2023-05-10T04:10:12;1.15;;;0.68;;
42478;SDS011;28110;47.080;9.476;2023-05-10T04:12:37;2.20;;;0.80;;
42478;SDS011;28110;47.080;9.476;2023-05-10T04:15:03;3.15;;;0.70;;
42478;SDS011;28110;47.080;9.476;2023-05-10T04:17:29;4.77;;;1.10;;
42478;SDS011;28110;47.080;9.476;2023-05-10T04:19:55;5.25;;;2.03;;
42478;SDS011;28110;47.080;9.476;2023-05-10T04:22:21;3.35;;;1.30;;
42478;SDS011;28110;47.080;9.476;2023-05-10T04:24:46;4.07;;;0.80;;
42478;SDS011;28110;47.080;9.476;2023-05-10T04:27:12;2.50;;;0.70;;
42478;SDS011;28110;47.080;9.476;2023-05-10T04:29:37;0.50;;;0.43;;
42478;SDS011;28110;47.080;9.476;2023-05-10T04:32:03;0.77;;;0.55;;
42478;SDS011;28110;47.080;9.476;2023-05-10T04:34:29;0.80;;;0.50;;
42478;SDS011;28110;47.080;9.476;2023-05-10T04:36:54;1.65;;;0.50;;
42478;SDS011;28110;47.080;9.476;2023-05-10T04:39:20;0.57;;;0.50;;
42478;SDS011;28110;47.080;9.476;2023-05-10T04:41:45;4.73;;;0.50;;
42478;SDS011;28110;47.080;9.476;2023-05-10T04:44:11;1.50;;;0.70;;
42478;SDS011;28110;47.080;9.476;2023-05-10T04:46:36;0.83;;;0.47;;
42478;SDS011;28110;47.080;9.476;2023-05-10T04:49:02;1.70;;;0.90;;
42478;SDS011;28110;47.080;9.476;2023-05-10T04:51:27;0.80;;;0.80;;
42478;SDS011;28110;47.080;9.476;2023-05-10T04:53:53;2.93;;;0.90;;
42478;SDS011;28110;47.080;9.476;2023-05-10T04:56:18;1.53;;;0.40;;
42478;SDS011;28110;47.080;9.476;2023-05-10T04:58:44;0.93;;;0.45;;
42478;SDS011;28110;47.080;9.476;2023-05-10T05:01:09;4.20;;;0.40;;
42478;SDS011;28110;47.080;9.476;2023-05-10T05:03:35;1.80;;;0.70;;
42478;SDS011;28110;47.080;9.476;2023-05-10T05:06:01;3.33;;;0.82;;
42478;SDS011;28110;47.080;9.476;2023-05-10T05:08:27;2.55;;;0.50;;
42478;SDS011;28110;47.080;9.476;2023-05-10T05:10:52;1.47;;;1.07;;
42478;SDS011;28110;47.080;9.476;2023-05-10T05:13:19;2.90;;;0.50;;
42478;SDS011;28110;47.080;9.476;2023-05-10T05:15:44;2.83;;;0.70;;
42478;SDS011;28110;47.080;9.476;2023-05-10T05:18:10;1.80;;;0.90;;
42478;SDS011;28110;47.080;9.476;2023-05-10T05:20:35;1.42;;;0.80;;
42478;SDS011;28110;47.080;9.476;2023-05-10T05:23:01;0.93;;;0.50;;
42478;SDS011;28110;47.080;9.476;2023-05-10T05:25:27;0.85;;;0.60;;
42478;SDS011;28110;47.080;9.476;2023-05-10T05:27:52;1.67;;;1.58;;
42478;SDS011;28110;47.080;9.476;2023-05-10T05:30:18;1.60;;;1.20;;
42478;SDS011;28110;47.080;9.476;2023-05-10T05:32:44;2.80;;;0.98;;
42478;SDS011;28110;47.080;9.476;2023-05-10T05:35:09;1.93;;;0.93;;
42478;SDS011;28110;47.080;9.476;2023-05-10T05:37:35;1.60;;;0.93;;
42478;SDS011;28110;47.080;9.476;2023-05-10T05:40:00;2.90;;;0.83;;
42478;SDS011;28110;47.080;9.476;2023-05-10T05:42:26;1.15;;;0.50;;
42478;SDS011;28110;47.080;9.476;2023-05-10T05:44:52;1.47;;;0.40;;
42478;SDS011;28110;47.080;9.476;2023-05-10T05:47:17;0.30;;;0.30;;
42478;SDS011;28110;47.080;9.476;2023-05-10T05:49:43;1.15;;;0.40;;
42478;SDS011;28110;47.080;9.476;2023-05-10T05:52:10;2.50;;;0.30;;
42478;SDS011;28110;47.080;9.476;2023-05-10T05:54:36;0.47;;;0.30;;
42478;SDS011;28110;47.080;9.476;2023-05-10T05:57:02;0.57;;;0.30;;
42478;SDS011;28110;47.080;9.476;2023-05-10T05:59:27;4.45;;;0.60;;
42478;SDS011;28110;47.080;9.476;2023-05-10T06:01:53;0.77;;;0.40;;
42478;SDS011;28110;47.080;9.476;2023-05-10T06:04:19;1.40;;;0.40;;
42478;SDS011;28110;47.080;9.476;2023-05-10T06:06:45;1.38;;;0.60;;
42478;SDS011;28110;47.080;9.476;2023-05-10T06:09:10;0.50;;;0.43;;
42478;SDS011;28110;47.080;9.476;2023-05-10T06:11:36;0.68;;;0.40;;
42478;SDS011;28110;47.080;9.476;2023-05-10T06:14:03;2.38;;;0.40;;
42478;SDS011;28110;47.080;9.476;2023-05-10T06:16:29;1.00;;;0.40;;
42478;SDS011;28110;47.080;9.476;2023-05-10T06:18:55;1.38;;;0.40;;
42478;SDS011;28110;47.080;9.476;2023-05-10T06:21:21;0.77;;;0.40;;
42478;SDS011;28110;47.080;9.476;2023-05-10T06:23:47;1.23;;;0.60;;
42478;SDS011;28110;47.080;9.476;2023-05-10T06:26:13;0.82;;;0.40;;
42478;SDS011;28110;47.080;9.476;2023-05-10T06:28:39;3.63;;;1.23;;
42478;SDS011;28110;47.080;9.476;2023-05-10T06:31:05;2.80;;;0.80;;
42478;SDS011;28110;47.080;9.476;2023-05-10T06:33:31;3.92;;;1.55;;
42478;SDS011;28110;47.080;9.476;2023-05-10T06:35:57;5.27;;;1.90;;
42478;SDS011;28110;47.080;9.476;2023-05-10T06:38:22;3.83;;;1.00;;
42478;SDS011;28110;47.080;9.476;2023-05-10T06:40:48;7.10;;;1.60;;
42478;SDS011;28110;47.080;9.476;2023-05-10T06:43:13;4.80;;;2.57;;
42478;SDS011;28110;47.080;9.476;2023-05-10T06:45:39;9.05;;;3.83;;
42478;SDS011;28110;47.080;9.476;2023-05-10T06:48:05;5.13;;;1.80;;
42478;SDS011;28110;47.080;9.476;2023-05-10T06:50:31;4.83;;;1.00;;
42478;SDS011;28110;47.080;9.476;2023-05-10T06:52:57;2.45;;;0.90;;
42478;SDS011;28110;47.080;9.476;2023-05-10T06:55:22;3.03;;;0.50;;
42478;SDS011;28110;47.080;9.476;2023-05-10T06:57:48;3.45;;;0.40;;
42478;SDS011;28110;47.080;9.476;2023-05-10T07:00:14;2.67;;;0.90;;
42478;SDS011;28110;47.080;9.476;2023-05-10T07:02:40;1.83;;;1.00;;
42478;SDS011;28110;47.080;9.476;2023-05-10T07:05:05;3.37;;;1.73;;
42478;SDS011;28110;47.080;9.476;2023-05-10T07:07:31;4.55;;;1.90;;
42478;SDS011;28110;47.080;9.476;2023-05-10T07:09:57;5.17;;;1.77;;
42478;SDS011;28110;47.080;9.476;2023-05-10T07:12:23;1.80;;;0.80;;
42478;SDS011;28110;47.080;9.476;2023-05-10T07:14:49;4.20;;;1.10;;
42478;SDS011;28110;47.080;9.476;2023-05-10T07:17:14;1.23;;;0.85;;
42478;SDS011;28110;47.080;9.476;2023-05-10T07:19:40;1.50;;;1.07;;
42478;SDS011;28110;47.080;9.476;2023-05-10T07:22:05;4.47;;;0.80;;
42478;SDS011;28110;47.080;9.476;2023-05-10T07:24:31;1.58;;;0.80;;
42478;SDS011;28110;47.080;9.476;2023-05-10T07:26:58;2.10;;;0.88;;
42478;SDS011;28110;47.080;9.476;2023-05-10T07:29:23;0.80;;;0.70;;
42478;SDS011;28110;47.080;9.476;2023-05-10T07:31:49;3.80;;;1.90;;
42478;SDS011;28110;47.080;9.476;2023-05-10T07:34:14;4.95;;;1.60;;
42478;SDS011;28110;47.080;9.476;2023-05-10T07:36:40;1.30;;;0.50;;
42478;SDS011;28110;47.080;9.476;2023-05-10T07:39:06;6.60;;;1.08;;
42478;SDS011;28110;47.080;9.476;2023-05-10T07:41:32;3.70;;;0.70;;
42478;SDS011;28110;47.080;9.476;2023-05-10T07:43:57;1.15;;;0.60;;
42478;SDS011;28110;47.080;9.476;2023-05-10T07:46:23;3.07;;;0.50;;
42478;SDS011;28110;47.080;9.476;2023-05-10T07:48:48;1.90;;;0.60;;
42478;SDS011;28110;47.080;9.476;2023-05-10T07:51:14;1.73;;;0.43;;
42478;SDS011;28110;47.080;9.476;2023-05-10T07:53:39;1.50;;;0.60;;
42478;SDS011;28110;47.080;9.476;2023-05-10T07:56:24;4.32;;;0.60;;
42478;SDS011;28110;47.080;9.476;2023-05-10T07:58:52;1.70;;;0.40;;
42478;SDS011;28110;47.080;9.476;2023-05-10T08:01:19;0.57;;;0.40;;
42478;SDS011;28110;47.080;9.476;2023-05-10T08:03:44;3.20;;;0.90;;
42478;SDS011;28110;47.080;9.476;2023-05-10T08:06:10;3.22;;;0.88;;
42478;SDS011;28110;47.080;9.476;2023-05-10T08:08:36;7.30;;;2.20;;
42478;SDS011;28110;47.080;9.476;2023-05-10T08:11:01;2.67;;;1.52;;
42478;SDS011;28110;47.080;9.476;2023-05-10T08:13:28;2.50;;;1.10;;
42478;SDS011;28110;47.080;9.476;2023-05-10T08:15:54;4.80;;;0.97;;
42478;SDS011;28110;47.080;9.476;2023-05-10T08:18:19;1.77;;;0.80;;
42478;SDS011;28110;47.080;9.476;2023-05-10T08:20:45;7.57;;;1.40;;
42478;SDS011;28110;47.080;9.476;2023-05-10T08:23:14;2.40;;;0.80;;
42478;SDS011;28110;47.080;9.476;2023-05-10T08:25:40;1.48;;;0.80;;
42478;SDS011;28110;47.080;9.476;2023-05-10T08:28:06;1.65;;;0.50;;
42478;SDS011;28110;47.080;9.476;2023-05-10T08:30:31;4.37;;;0.80;;
42478;SDS011;28110;47.080;9.476;2023-05-10T08:32:57;2.78;;;0.60;;
42478;SDS011;28110;47.080;9.476;2023-05-10T08:35:22;7.03;;;0.70;;
42478;SDS011;28110;47.080;9.476;2023-05-10T08:37:48;8.57;;;1.30;;
42478;SDS011;28110;47.080;9.476;2023-05-10T08:40:13;17.93;;;1.30;;
42478;SDS011;28110;47.080;9.476;2023-05-10T08:42:43;6.95;;;1.30;;
42478;SDS011;28110;47.080;9.476;2023-05-10T08:45:27;6.57;;;1.10;;
42478;SDS011;28110;47.080;9.476;2023-05-10T08:47:57;6.03;;;0.77;;
42478;SDS011;28110;47.080;9.476;2023-05-10T08:50:24;6.05;;;0.88;;
42478;SDS011;28110;47.080;9.476;2023-05-10T08:52:50;2.70;;;0.50;;
42478;SDS011;28110;47.080;9.476;2023-05-10T08:55:20;4.00;;;0.60;;
42478;SDS011;28110;47.080;9.476;2023-05-10T08:57:48;3.17;;;0.60;;
42478;SDS011;28110;47.080;9.476;2023-05-10T09:00:13;0.95;;;0.50;;
42478;SDS011;28110;47.080;9.476;2023-05-10T09:02:40;4.07;;;0.40;;
42478;SDS011;28110;47.080;9.476;2023-05-10T09:05:08;3.13;;;0.40;;
42478;SDS011;28110;47.080;9.476;2023-05-10T09:07:34;1.77;;;0.47;;
42478;SDS011;28110;47.080;9.476;2023-05-10T09:10:00;2.17;;;0.50;;
42478;SDS011;28110;47.080;9.476;2023-05-10T09:12:26;4.38;;;1.48;;
42478;SDS011;28110;47.080;9.476;2023-05-10T09:14:52;0.95;;;0.55;;
42478;SDS011;28110;47.080;9.476;2023-05-10T09:17:18;0.88;;;0.43;;
42478;SDS011;28110;47.080;9.476;2023-05-10T09:19:45;1.35;;;0.50;;
42478;SDS011;28110;47.080;9.476;2023-05-10T09:22:10;2.50;;;0.63;;
42478;SDS011;28110;47.080;9.476;2023-05-10T09:24:36;4.80;;;0.53;;
42478;SDS011;28110;47.080;9.476;2023-05-10T09:27:07;2.42;;;0.75;;
42478;SDS011;28110;47.080;9.476;2023-05-10T09:29:39;1.80;;;0.70;;
42478;SDS011;28110;47.080;9.476;2023-05-10T09:32:05;9.00;;;0.70;;
42478;SDS011;28110;47.080;9.476;2023-05-10T09:34:31;1.27;;;0.53;;
42478;SDS011;28110;47.080;9.476;2023-05-10T09:37:00;2.08;;;0.50;;
42478;SDS011;28110;47.080;9.476;2023-05-10T09:39:34;6.22;;;0.63;;
42478;SDS011;28110;47.080;9.476;2023-05-10T09:42:04;1.75;;;0.60;;
42478;SDS011;28110;47.080;9.476;2023-05-10T09:44:34;4.63;;;0.50;;
42478;SDS011;28110;47.080;9.476;2023-05-10T09:47:00;6.33;;;0.87;;
42478;SDS011;28110;47.080;9.476;2023-05-10T09:49:26;6.40;;;0.95;;
42478;SDS011;28110;47.080;9.476;2023-05-10T09:52:01;4.93;;;0.73;;
42478;SDS011;28110;47.080;9.476;2023-05-10T09:54:28;6.93;;;0.67;;
42478;SDS011;28110;47.080;9.476;2023-05-10T09:56:54;6.85;;;0.60;;
42478;SDS011;28110;47.080;9.476;2023-05-10T09:59:20;8.27;;;0.97;;
42478;SDS011;28110;47.080;9.476;2023-05-10T10:01:49;6.07;;;1.23;;
42478;SDS011;28110;47.080;9.476;2023-05-10T10:04:16;1.20;;;0.43;;
42478;SDS011;28110;47.080;9.476;2023-05-10T10:06:42;2.75;;;1.08;;
42478;SDS011;28110;47.080;9.476;2023-05-10T10:09:07;2.83;;;0.70;;
42478;SDS011;28110;47.080;9.476;2023-05-10T10:11:34;2.67;;;0.60;;
42478;SDS011;28110;47.080;9.476;2023-05-10T10:14:01;0.73;;;0.30;;
42478;SDS011;28110;47.080;9.476;2023-05-10T10:16:27;3.95;;;0.50;;
42478;SDS011;28110;47.080;9.476;2023-05-10T10:18:54;1.27;;;0.55;;
42478;SDS011;28110;47.080;9.476;2023-05-10T10:21:20;1.90;;;0.40;;
42478;SDS011;28110;47.080;9.476;2023-05-10T10:23:47;2.67;;;0.73;;
42478;SDS011;28110;47.080;9.476;2023-05-10T10:26:12;2.92;;;0.60;;
42478;SDS011;28110;47.080;9.476;2023-05-10T10:33:56;3.53;;;0.50;;
42478;SDS011;28110;47.080;9.476;2023-05-10T10:36:26;0.80;;;0.50;;
42478;SDS011;28110;47.080;9.476;2023-05-10T10:38:55;1.27;;;0.50;;
42478;SDS011;28110;47.080;9.476;2023-05-10T10:47:50;3.75;;;0.52;;
42478;SDS011;28110;47.080;9.476;2023-05-10T10:52:26;0.40;;;0.38;;
42478;SDS011;28110;47.080;9.476;2023-05-10T11:02:51;2.25;;;1.17;;
42478;SDS011;28110;47.080;9.476;2023-05-10T11:05:24;2.13;;;0.52;;
42478;SDS011;28110;47.080;9.476;2023-05-10T11:07:54;0.40;;;0.30;;
42478;SDS011;28110;47.080;9.476;2023-05-10T11:10:24;1.20;;;0.30;;
42478;SDS011;28110;47.080;9.476;2023-05-10T11:12:51;1.13;;;0.50;;
42478;SDS011;28110;47.080;9.476;2023-05-10T11:15:18;0.60;;;0.40;;
42478;SDS011;28110;47.080;9.476;2023-05-10T11:17:44;0.40;;;0.40;;
42478;SDS011;28110;47.080;9.476;2023-05-10T11:20:15;1.63;;;0.30;;
42478;SDS011;28110;47.080;9.476;2023-05-10T11:22:54;1.80;;;0.40;;
42478;SDS011;28110;47.080;9.476;2023-05-10T11:25:20;2.17;;;1.63;;
42478;SDS011;28110;47.080;9.476;2023-05-10T11:27:51;2.90;;;1.35;;
42478;SDS011;28110;47.080;9.476;2023-05-10T11:30:17;1.50;;;1.00;;
42478;SDS011;28110;47.080;9.476;2023-05-10T11:32:43;1.60;;;0.63;;
42478;SDS011;28110;47.080;9.476;2023-05-10T11:35:09;1.38;;;0.50;;
42478;SDS011;28110;47.080;9.476;2023-05-10T11:37:36;1.00;;;0.70;;
42478;SDS011;28110;47.080;9.476;2023-05-10T11:40:06;0.82;;;0.70;;
42478;SDS011;28110;47.080;9.476;2023-05-10T11:42:34;0.70;;;0.60;;
42478;SDS011;28110;47.080;9.476;2023-05-10T11:45:02;6.00;;;0.80;;
42478;SDS011;28110;47.080;9.476;2023-05-10T11:47:27;1.40;;;0.50;;
42478;SDS011;28110;47.080;9.476;2023-05-10T11:49:53;0.50;;;0.50;;
42478;SDS011;28110;47.080;9.476;2023-05-10T11:52:19;1.33;;;1.23;;
42478;SDS011;28110;47.080;9.476;2023-05-10T11:54:45;1.20;;;1.10;;
42478;SDS011;28110;47.080;9.476;2023-05-10T11:57:17;1.95;;;1.05;;
42478;SDS011;28110;47.080;9.476;2023-05-10T11:59:43;2.85;;;0.82;;
42478;SDS011;28110;47.080;9.476;2023-05-10T12:02:09;1.08;;;0.70;;
42478;SDS011;28110;47.080;9.476;2023-05-10T12:04:35;1.27;;;0.75;;
42478;SDS011;28110;47.080;9.476;2023-05-10T12:07:01;4.30;;;0.80;;
42478;SDS011;28110;47.080;9.476;2023-05-10T12:09:27;1.50;;;0.57;;
42478;SDS011;28110;47.080;9.476;2023-05-10T12:11:55;1.63;;;0.80;;
42478;SDS011;28110;47.080;9.476;2023-05-10T12:14:23;1.55;;;0.80;;
42478;SDS011;28110;47.080;9.476;2023-05-10T12:16:49;0.87;;;0.80;;
42478;SDS011;28110;47.080;9.476;2023-05-10T12:19:18;0.70;;;0.70;;
42478;SDS011;28110;47.080;9.476;2023-05-10T12:21:45;0.93;;;0.75;;
42478;SDS011;28110;47.080;9.476;2023-05-10T12:24:11;1.05;;;0.70;;
42478;SDS011;28110;47.080;9.476;2023-05-10T12:26:37;0.97;;;0.70;;
42478;SDS011;28110;47.080;9.476;2023-05-10T12:29:13;1.73;;;0.80;;
42478;SDS011;28110;47.080;9.476;2023-05-10T12:31:49;1.00;;;0.75;;
42478;SDS011;28110;47.080;9.476;2023-05-10T12:34:32;0.80;;;0.70;;
42478;SDS011;28110;47.080;9.476;2023-05-10T12:36:58;1.00;;;0.60;;
42478;SDS011;28110;47.080;9.476;2023-05-10T12:39:24;2.00;;;0.60;;
42478;SDS011;28110;47.080;9.476;2023-05-10T12:41:50;2.83;;;0.70;;
42478;SDS011;28110;47.080;9.476;2023-05-10T12:44:16;1.60;;;0.60;;
42478;SDS011;28110;47.080;9.476;2023-05-10T12:46:42;1.52;;;0.70;;
42478;SDS011;28110;47.080;9.476;2023-05-10T12:49:08;0.57;;;0.50;;
42478;SDS011;28110;47.080;9.476;2023-05-10T12:51:33;1.42;;;0.35;;
42478;SDS011;28110;47.080;9.476;2023-05-10T12:53:59;1.03;;;0.40;;
42478;SDS011;28110;47.080;9.476;2023-05-10T12:56:24;0.80;;;0.50;;
42478;SDS011;28110;47.080;9.476;2023-05-10T12:58:50;1.42;;;0.40;;
42478;SDS011;28110;47.080;9.476;2023-05-10T13:01:16;1.27;;;0.40;;
42478;SDS011;28110;47.080;9.476;2023-05-10T13:03:41;0.50;;;0.50;;
42478;SDS011;28110;47.080;9.476;2023-05-10T13:06:08;0.40;;;0.40;;
42478;SDS011;28110;47.080;9.476;2023-05-10T13:08:34;0.40;;;0.35;;
42478;SDS011;28110;47.080;9.476;2023-05-10T13:10:59;2.10;;;0.30;;
42478;SDS011;28110;47.080;9.476;2023-05-10T13:13:25;0.85;;;0.50;;
42478;SDS011;28110;47.080;9.476;2023-05-10T13:15:51;0.87;;;0.40;;
42478;SDS011;28110;47.080;9.476;2023-05-10T13:18:17;0.38;;;0.30;;
42478;SDS011;28110;47.080;9.476;2023-05-10T13:20:42;0.47;;;0.40;;
42478;SDS011;28110;47.080;9.476;2023-05-10T13:23:09;1.20;;;0.32;;
42478;SDS011;28110;47.080;9.476;2023-05-10T13:25:35;0.30;;;0.30;;
42478;SDS011;28110;47.080;9.476;2023-05-10T13:28:01;0.40;;;0.40;;
42478;SDS011;28110;47.080;9.476;2023-05-10T13:30:26;0.47;;;0.30;;
42478;SDS011;28110;47.080;9.476;2023-05-10T13:32:52;0.40;;;0.30;;
42478;SDS011;28110;47.080;9.476;2023-05-10T13:35:17;0.55;;;0.30;;
42478;SDS011;28110;47.080;9.476;2023-05-10T13:37:43;0.20;;;0.20;;
42478;SDS011;28110;47.080;9.476;2023-05-10T13:40:09;0.30;;;0.30;;
42478;SDS011;28110;47.080;9.476;2023-05-10T13:42:35;1.20;;;0.40;;
42478;SDS011;28110;47.080;9.476;2023-05-10T13:45:01;0.90;;;0.50;;
42478;SDS011;28110;47.080;9.476;2023-05-10T13:47:26;2.88;;;0.65;;
42478;SDS011;28110;47.080;9.476;2023-05-10T13:49:52;0.70;;;0.50;;
42478;SDS011;28110;47.080;9.476;2023-05-10T13:52:18;0.30;;;0.30;;
42478;SDS011;28110;47.080;9.476;2023-05-10T13:54:44;1.20;;;0.30;;
42478;SDS011;28110;47.080;9.476;2023-05-10T13:57:09;1.27;;;0.40;;
42478;SDS011;28110;47.080;9.476;2023-05-10T13:59:37;1.77;;;0.30;;
42478;SDS011;28110;47.080;9.476;2023-05-10T14:02:03;0.70;;;0.30;;
42478;SDS011;28110;47.080;9.476;2023-05-10T14:04:29;0.43;;;0.40;;
42478;SDS011;28110;47.080;9.476;2023-05-10T14:06:55;1.55;;;0.40;;
42478;SDS011;28110;47.080;9.476;2023-05-10T14:09:20;0.37;;;0.30;;
42478;SDS011;28110;47.080;9.476;2023-05-10T14:11:46;0.68;;;0.38;;
42478;SDS011;28110;47.080;9.476;2023-05-10T14:14:12;0.57;;;0.40;;
42478;SDS011;28110;47.080;9.476;2023-05-10T14:16:42;1.58;;;0.50;;
42478;SDS011;28110;47.080;9.476;2023-05-10T14:19:09;0.40;;;0.40;;
42478;SDS011;28110;47.080;9.476;2023-05-10T14:21:35;1.67;;;0.50;;
42478;SDS011;28110;47.080;9.476;2023-05-10T14:24:01;0.93;;;0.40;;
42478;SDS011;28110;47.080;9.476;2023-05-10T14:26:27;1.23;;;0.40;;
42478;SDS011;28110;47.080;9.476;2023-05-10T14:28:52;0.60;;;0.60;;
42478;SDS011;28110;47.080;9.476;2023-05-10T14:31:18;0.87;;;0.40;;
42478;SDS011;28110;47.080;9.476;2023-05-10T14:33:45;0.22;;;0.22;;
42478;SDS011;28110;47.080;9.476;2023-05-10T14:36:12;0.57;;;0.50;;
42478;SDS011;28110;47.080;9.476;2023-05-10T14:38:38;0.40;;;0.30;;
42478;SDS011;28110;47.080;9.476;2023-05-10T14:41:04;0.47;;;0.40;;
42478;SDS011;28110;47.080;9.476;2023-05-10T14:43:29;0.50;;;0.30;;
42478;SDS011;28110;47.080;9.476;2023-05-10T14:45:55;0.60;;;0.40;;
42478;SDS011;28110;47.080;9.476;2023-05-10T14:48:20;0.95;;;0.32;;
42478;SDS011;28110;47.080;9.476;2023-05-10T14:50:46;7.20;;;0.50;;
42478;SDS011;28110;47.080;9.476;2023-05-10T14:53:12;2.70;;;0.40;;
42478;SDS011;28110;47.080;9.476;2023-05-10T14:55:37;1.35;;;0.40;;
42478;SDS011;28110;47.080;9.476;2023-05-10T14:58:03;1.05;;;0.60;;
42478;SDS011;28110;47.080;9.476;2023-05-10T15:00:29;0.40;;;0.40;;
42478;SDS011;28110;47.080;9.476;2023-05-10T15:02:55;0.98;;;0.50;;
42478;SDS011;28110;47.080;9.476;2023-05-10T15:05:21;0.80;;;0.60;;
42478;SDS011;28110;47.080;9.476;2023-05-10T15:07:46;5.10;;;0.52;;
42478;SDS011;28110;47.080;9.476;2023-05-10T15:10:12;1.07;;;0.63;;
42478;SDS011;28110;47.080;9.476;2023-05-10T15:12:38;5.95;;;3.83;;
42478;SDS011;28110;47.080;9.476;2023-05-10T15:15:04;8.73;;;4.43;;
42478;SDS011;28110;47.080;9.476;2023-05-10T15:17:31;1.20;;;0.80;;
42478;SDS011;28110;47.080;9.476;2023-05-10T15:19:57;0.73;;;0.47;;
42478;SDS011;28110;47.080;9.476;2023-05-10T15:22:22;0.40;;;0.30;;
42478;SDS011;28110;47.080;9.476;2023-05-10T15:24:48;0.85;;;0.50;;
42478;SDS011;28110;47.080;9.476;2023-05-10T15:27:14;0.60;;;0.45;;
42478;SDS011;28110;47.080;9.476;2023-05-10T15:29:39;0.40;;;0.40;;